Time;durP1;ratioP1;P1;durP2;ratioP2;P2;SDS_P1;SDS_P2;PMS_P1;PMS_P2;Temp;Humidity;BMP_temperature;BMP_pressure;BME280_temperature;BME280_humidity;BME280_pressure;Samples;Min_cycle;Max_cycle;Signal;HPM_P1;HPM_P2
2023/08/12 00:00:21;;;;;;;6.00;3.60;;;;;;;13.35;89.49;101168.44;105290;1259;69327;-58
2023/08/12 00:03:08;;;;;;;4.20;3.80;;;;;;;13.35;89.70;101171.44;105243;1258;69192;-58
2023/08/12 00:05:35;;;;;;;5.20;3.70;;;;;;;13.38;90.12;101171.36;105132;1256;74593;-57
2023/08/12 00:08:03;;;;;;;6.00;4.20;;;;;;;13.43;90.56;101163.79;105144;1260;83956;-58
2023/08/12 00:10:29;;;;;;;5.60;4.20;;;;;;;13.53;91.36;101159.56;105126;1256;72564;-58
2023/08/12 00:12:57;;;;;;;5.80;3.80;;;;;;;13.54;90.57;101157.60;105154;1257;69193;-57
2023/08/12 00:15:24;;;;;;;6.60;3.90;;;;;;;13.50;90.18;101151.96;105168;1257;69104;-58
2023/08/12 00:17:52;;;;;;;4.10;3.70;;;;;;;13.47;90.28;101150.83;105099;1256;75619;-58
2023/08/12 00:20:19;;;;;;;5.20;4.20;;;;;;;13.44;90.08;101148.85;105114;1260;83340;-58
2023/08/12 00:22:46;;;;;;;4.30;3.70;;;;;;;13.42;90.22;101149.62;105087;1260;72673;-57
2023/08/12 00:25:13;;;;;;;5.00;3.30;;;;;;;13.42;90.61;101148.20;105069;1258;69117;-58
2023/08/12 00:27:39;;;;;;;4.00;3.60;;;;;;;13.41;90.37;101151.41;105323;1258;69147;-58
2023/08/12 00:30:07;;;;;;;6.50;4.30;;;;;;;13.39;90.55;101145.16;105290;1256;74430;-58
2023/08/12 00:32:35;;;;;;;5.70;4.00;;;;;;;13.40;90.62;101143.01;105288;1257;83925;-58
2023/08/12 00:35:02;;;;;;;8.50;3.80;;;;;;;13.38;90.44;101144.48;105152;1256;73659;-59
2023/08/12 00:37:29;;;;;;;5.80;3.70;;;;;;;13.36;90.55;101147.02;105263;1256;69190;-58
2023/08/12 00:39:56;;;;;;;6.70;4.40;;;;;;;13.35;90.65;101141.42;105095;1259;69137;-58
2023/08/12 00:42:23;;;;;;;4.30;3.90;;;;;;;13.35;90.64;101142.13;105052;1256;75931;-58
2023/08/12 00:44:50;;;;;;;5.20;3.80;;;;;;;13.32;90.63;101140.15;105143;1258;83339;-58
2023/08/12 00:47:17;;;;;;;4.00;3.60;;;;;;;13.30;90.78;101139.86;105233;1257;73582;-58
2023/08/12 00:49:45;;;;;;;4.80;3.80;;;;;;;13.30;91.10;101138.11;105123;1255;69306;-58
2023/08/12 00:52:13;;;;;;;5.10;3.50;;;;;;;13.29;91.04;101137.42;105299;1259;69190;-58
2023/08/12 00:54:40;;;;;;;4.60;4.10;;;;;;;13.29;91.03;101136.41;105285;1255;75157;-58
2023/08/12 00:57:07;;;;;;;4.60;4.20;;;;;;;13.26;91.23;101134.54;105152;1260;83307;-58
2023/08/12 00:59:37;;;;;;;5.60;4.00;;;;;;;13.25;91.22;101131.25;105175;1256;73790;-58
2023/08/12 01:02:04;;;;;;;5.80;4.60;;;;;;;13.26;91.46;101127.91;105370;1259;69248;-58
2023/08/12 01:04:31;;;;;;;5.80;4.40;;;;;;;13.23;91.19;101128.33;105136;1260;69144;-58
2023/08/12 01:06:58;;;;;;;6.80;4.40;;;;;;;13.18;91.51;101122.52;105382;1256;74628;-58
2023/08/12 01:09:25;;;;;;;4.10;3.70;;;;;;;13.19;91.72;101124.98;105277;1258;83301;-58
2023/08/12 01:12:15;;;;;;;5.00;4.20;;;;;;;13.16;91.46;101122.63;105352;1255;72647;-58
2023/08/12 01:14:59;;;;;;;4.90;4.10;;;;;;;13.14;91.92;101116.71;105075;1260;69215;-57
2023/08/12 01:17:27;;;;;;;6.50;4.60;;;;;;;13.13;91.88;101116.55;105249;1259;69190;-58
2023/08/12 01:19:56;;;;;;;5.80;4.20;;;;;;;13.12;92.05;101113.83;105327;1257;75708;-56
2023/08/12 01:22:23;;;;;;;6.30;4.40;;;;;;;13.11;92.04;101108.40;105012;1261;82629;-56
2023/08/12 01:24:51;;;;;;;5.10;4.20;;;;;;;13.11;92.08;101107.02;105010;1259;71588;-58
2023/08/12 01:27:18;;;;;;;7.70;4.30;;;;;;;13.08;92.12;101111.84;105135;1257;69164;-59
2023/08/12 01:29:49;;;;;;;4.70;4.10;;;;;;;13.05;92.13;101113.01;105322;1258;69213;-58
2023/08/12 01:32:40;;;;;;;7.70;4.10;;;;;;;13.03;92.19;101113.80;105301;1256;75545;-58
2023/08/12 01:35:17;;;;;;;5.40;4.60;;;;;;;13.03;92.34;101109.94;105235;1256;83555;-58
2023/08/12 01:37:47;;;;;;;8.00;4.60;;;;;;;13.02;92.32;101113.46;105270;1255;72592;-58
2023/08/12 01:40:15;;;;;;;6.10;4.70;;;;;;;13.01;92.48;101109.64;105297;1256;69168;-59
2023/08/12 01:42:43;;;;;;;5.90;4.40;;;;;;;13.00;92.52;101113.17;105147;1260;69233;-58
2023/08/12 01:45:10;;;;;;;4.70;4.20;;;;;;;12.99;92.47;101117.63;105309;1256;75633;-59
2023/08/12 01:47:38;;;;;;;6.50;3.90;;;;;;;12.96;92.60;101121.20;105103;1256;83184;-59
2023/08/12 01:50:06;;;;;;;6.60;4.40;;;;;;;12.97;92.66;101115.94;105180;1258;71629;-59
2023/08/12 01:52:33;;;;;;;7.40;4.30;;;;;;;12.95;92.58;101108.64;105112;1256;69211;-58
2023/08/12 01:55:00;;;;;;;4.40;4.00;;;;;;;12.91;92.54;101112.44;105345;1256;69201;-59
2023/08/12 01:57:27;;;;;;;5.80;4.30;;;;;;;12.89;92.68;101106.91;105256;1258;75529;-58
2023/08/12 01:59:54;;;;;;;6.80;4.40;;;;;;;12.86;92.58;101112.80;105303;1256;82416;-58
2023/08/12 02:02:21;;;;;;;7.30;4.30;;;;;;;12.82;92.76;101110.65;105154;1256;72671;-59
2023/08/12 02:04:48;;;;;;;4.10;3.70;;;;;;;12.81;92.95;101108.27;105153;1259;69133;-58
2023/08/12 02:07:14;;;;;;;6.60;4.50;;;;;;;12.81;93.05;101102.45;105139;1259;69181;-59
2023/08/12 02:09:41;;;;;;;6.40;4.80;;;;;;;12.81;93.11;101099.30;105071;1256;74565;-59
2023/08/12 02:12:08;;;;;;;5.40;4.20;;;;;;;12.79;93.09;101103.77;105195;1259;83586;-59
2023/08/12 02:14:36;;;;;;;9.00;4.50;;;;;;;12.75;93.11;101105.13;105120;1257;72778;-58
2023/08/12 02:17:05;;;;;;;5.60;4.40;;;;;;;12.72;93.26;101106.45;105046;1261;69147;-59
2023/08/12 02:19:33;;;;;;;6.10;4.80;;;;;;;12.69;93.23;101104.11;105222;1256;69195;-58
2023/08/12 02:22:01;;;;;;;10.10;4.90;;;;;;;12.65;93.09;101102.66;105291;1256;75748;-58
2023/08/12 02:24:28;;;;;;;7.50;4.60;;;;;;;12.62;93.06;101104.54;105287;1256;82379;-59
2023/08/12 02:26:55;;;;;;;5.00;4.30;;;;;;;12.58;93.18;101106.58;105271;1257;73832;-59
2023/08/12 02:29:22;;;;;;;5.30;4.10;;;;;;;12.55;93.29;101101.95;105115;1257;69199;-58
2023/08/12 02:31:49;;;;;;;5.00;4.20;;;;;;;12.53;93.05;101095.73;105252;1258;69185;-59
2023/08/12 02:34:19;;;;;;;6.90;4.60;;;;;;;12.50;93.34;101088.64;105324;1256;75815;-59
2023/08/12 02:36:46;;;;;;;6.00;4.00;;;;;;;12.49;93.35;101088.66;105281;1258;83283;-58
2023/08/12 02:39:13;;;;;;;4.80;4.40;;;;;;;12.47;93.55;101083.81;105254;1256;73751;-58
2023/08/12 02:41:40;;;;;;;5.80;4.10;;;;;;;12.45;93.44;101084.23;105236;1259;69154;-58
2023/08/12 02:44:08;;;;;;;5.60;4.20;;;;;;;12.42;93.67;101082.92;105174;1260;69161;-58
2023/08/12 02:46:35;;;;;;;5.00;4.30;;;;;;;12.41;93.78;101080.16;105141;1257;75846;-59
2023/08/12 02:49:02;;;;;;;6.00;4.80;;;;;;;12.41;94.01;101081.58;105115;1260;83403;-59
2023/08/12 02:51:28;;;;;;;4.80;4.30;;;;;;;12.39;93.98;101080.05;105113;1255;73568;-59
2023/08/12 02:53:55;;;;;;;5.80;4.40;;;;;;;12.37;93.72;101083.45;105111;1258;69153;-58
2023/08/12 02:56:22;;;;;;;6.40;4.70;;;;;;;12.35;93.79;101087.04;105097;1259;69121;-58
2023/08/12 02:58:49;;;;;;;6.00;4.20;;;;;;;12.33;93.99;101088.84;105093;1258;75650;-58
2023/08/12 03:01:16;;;;;;;6.10;4.60;;;;;;;12.33;94.38;101085.52;105117;1258;83499;-59
2023/08/12 03:03:43;;;;;;;7.50;5.20;;;;;;;12.33;94.35;101085.52;105186;1256;72506;-59
2023/08/12 03:06:11;;;;;;;7.40;4.70;;;;;;;12.31;94.23;101085.78;105190;1256;69176;-58
2023/08/12 03:08:37;;;;;;;5.60;4.60;;;;;;;12.29;94.34;101083.02;105065;1256;69158;-58
2023/08/12 03:11:05;;;;;;;6.80;4.90;;;;;;;12.27;94.31;101082.89;105228;1256;75744;-59
2023/08/12 03:13:32;;;;;;;4.90;4.20;;;;;;;12.25;94.40;101088.07;105306;1258;83154;-58
2023/08/12 03:15:59;;;;;;;6.80;4.70;;;;;;;12.23;94.40;101088.11;105048;1256;73344;-59
2023/08/12 03:18:27;;;;;;;6.90;5.00;;;;;;;12.22;94.49;101088.16;105119;1260;69192;-58
2023/08/12 03:20:55;;;;;;;6.30;4.60;;;;;;;12.20;94.48;101085.60;105301;1258;69128;-58
2023/08/12 03:23:23;;;;;;;5.50;4.90;;;;;;;12.19;94.55;101084.41;105295;1258;74079;-59
2023/08/12 03:25:50;;;;;;;6.10;5.00;;;;;;;12.19;94.75;101081.77;105291;1258;83357;-58
2023/08/12 03:28:17;;;;;;;6.90;4.90;;;;;;;12.20;94.87;101082.81;105235;1258;74030;-58
2023/08/12 03:30:53;;;;;;;7.30;5.00;;;;;;;12.19;94.88;101083.52;105180;1258;69225;-58
2023/08/12 03:33:21;;;;;;;6.30;5.30;;;;;;;12.20;95.09;101083.52;105131;1256;69222;-58
2023/08/12 03:35:49;;;;;;;7.20;5.00;;;;;;;12.20;95.28;101081.92;105192;1256;74770;-58
2023/08/12 03:38:16;;;;;;;8.20;5.30;;;;;;;12.19;95.20;101077.21;105225;1258;83198;-58
2023/08/12 03:40:44;;;;;;;5.10;4.60;;;;;;;12.20;95.58;101075.45;105249;1256;73656;-58
2023/08/12 03:43:13;;;;;;;7.80;5.60;;;;;;;12.21;95.62;101073.63;105134;1256;69083;-59
2023/08/12 03:45:42;;;;;;;7.40;5.00;;;;;;;12.22;95.47;101077.30;105142;1258;69180;-58
2023/08/12 03:48:10;;;;;;;6.10;5.10;;;;;;;12.22;95.89;101079.73;105131;1261;75541;-59
2023/08/12 03:50:38;;;;;;;5.70;5.20;;;;;;;12.25;96.08;101076.50;105163;1256;83879;-59
2023/08/12 03:53:05;;;;;;;6.00;5.20;;;;;;;12.28;95.93;101076.92;105250;1258;73804;-59
2023/08/12 03:55:33;;;;;;;6.40;4.90;;;;;;;12.28;95.88;101082.52;105129;1261;69187;-59
2023/08/12 03:58:01;;;;;;;6.40;5.00;;;;;;;12.30;96.37;101080.17;105163;1260;69119;-58
2023/08/12 04:00:28;;;;;;;9.40;6.30;;;;;;;12.32;96.32;101075.21;105226;1257;74590;-57
2023/08/12 04:02:57;;;;;;;7.50;5.30;;;;;;;12.34;96.18;101077.60;105141;1262;83535;-57
2023/08/12 04:05:25;;;;;;;6.30;5.30;;;;;;;12.34;96.24;101079.52;105168;1261;73627;-57
2023/08/12 04:07:52;;;;;;;6.60;5.20;;;;;;;12.38;96.84;101076.39;105087;1257;69182;-57
2023/08/12 04:10:18;;;;;;;6.00;5.10;;;;;;;12.45;97.15;101078.46;105160;1257;69089;-57
2023/08/12 04:12:45;;;;;;;5.70;5.20;;;;;;;12.49;96.93;101077.45;105184;1256;75596;-57
2023/08/12 04:15:12;;;;;;;6.20;5.30;;;;;;;12.51;97.10;101084.37;105126;1261;83201;-57
2023/08/12 04:17:40;;;;;;;11.00;5.60;;;;;;;12.56;97.50;101081.75;105087;1256;72506;-57
2023/08/12 04:20:08;;;;;;;5.30;4.80;;;;;;;12.63;97.94;101075.52;105148;1256;69148;-58
2023/08/12 04:22:36;;;;;;;7.50;5.70;;;;;;;12.67;97.93;101076.98;105302;1258;69184;-58
2023/08/12 04:25:03;;;;;;;6.60;5.50;;;;;;;12.72;97.97;101079.64;105051;1257;75868;-57
2023/08/12 04:27:30;;;;;;;7.20;5.50;;;;;;;12.78;98.15;101075.92;105315;1258;83463;-57
2023/08/12 04:29:58;;;;;;;7.10;5.60;;;;;;;12.83;98.30;101075.04;105291;1256;72570;-58
2023/08/12 04:32:26;;;;;;;5.80;5.20;;;;;;;12.86;98.13;101073.34;105329;1256;69071;-58
2023/08/12 04:34:53;;;;;;;5.80;5.30;;;;;;;12.91;98.44;101068.95;105313;1256;69181;-57
2023/08/12 04:37:21;;;;;;;5.90;5.30;;;;;;;12.97;98.74;101065.75;105320;1256;75478;-58
2023/08/12 04:39:50;;;;;;;6.40;5.70;;;;;;;13.03;98.60;101060.26;105299;1257;83818;-58
2023/08/12 04:42:19;;;;;;;8.30;5.50;;;;;;;13.08;98.79;101054.63;105104;1258;73645;-57
2023/08/12 04:44:46;;;;;;;10.50;6.10;;;;;;;13.15;98.94;101054.55;105212;1260;69201;-57
2023/08/12 04:47:14;;;;;;;7.60;5.80;;;;;;;13.22;99.13;101057.11;105199;1258;69704;-58
2023/08/12 04:49:41;;;;;;;8.10;5.50;;;;;;;13.29;99.11;101055.11;105219;1256;74512;-58
2023/08/12 04:52:08;;;;;;;6.90;5.40;;;;;;;13.39;99.56;101054.20;105288;1256;83442;-57
2023/08/12 04:54:35;;;;;;;6.10;5.50;;;;;;;13.49;99.70;101055.94;105261;1256;74139;-60
2023/08/12 04:57:02;;;;;;;16.40;6.70;;;;;;;13.60;99.92;101061.84;105274;1258;69235;-59
2023/08/12 04:59:29;;;;;;;6.80;5.50;;;;;;;13.71;99.94;101059.48;105152;1258;69218;-59
2023/08/12 05:01:56;;;;;;;8.40;5.80;;;;;;;13.83;100.00;101058.14;105376;1254;74699;-57
2023/08/12 05:04:32;;;;;;;6.00;5.40;;;;;;;13.97;100.00;101048.58;105432;1258;83134;-57
2023/08/12 05:06:59;;;;;;;6.80;6.10;;;;;;;14.11;100.00;101048.19;105343;1258;72619;-56
2023/08/12 05:09:25;;;;;;;9.70;5.60;;;;;;;14.24;100.00;101046.25;105159;1259;69155;-55
2023/08/12 05:11:52;;;;;;;9.30;5.90;;;;;;;14.37;100.00;101042.55;105232;1258;69192;-57
2023/08/12 05:14:19;;;;;;;9.70;5.50;;;;;;;14.50;100.00;101043.22;105319;1256;75513;-57
2023/08/12 05:16:46;;;;;;;6.20;5.30;;;;;;;14.63;100.00;101038.30;105140;1258;82602;-54
2023/08/12 05:19:13;;;;;;;6.30;5.00;;;;;;;14.75;100.00;101038.46;105233;1260;73648;-56
2023/08/12 05:21:40;;;;;;;8.30;5.00;;;;;;;14.87;100.00;101037.40;105152;1256;69187;-58
2023/08/12 05:24:08;;;;;;;5.50;4.40;;;;;;;15.00;100.00;101039.27;105106;1256;69208;-54
2023/08/12 05:26:35;;;;;;;6.00;4.80;;;;;;;15.11;100.00;101034.88;105213;1260;75653;-56
2023/08/12 05:29:02;;;;;;;7.50;5.20;;;;;;;15.23;100.00;101030.85;105178;1256;82566;-58
2023/08/12 05:31:29;;;;;;;5.60;5.00;;;;;;;15.35;100.00;101030.11;105196;1256;73929;-58
2023/08/12 05:33:56;;;;;;;8.10;5.50;;;;;;;15.46;100.00;101035.20;105306;1256;69138;-55
2023/08/12 05:36:23;;;;;;;10.70;8.20;;;;;;;15.57;99.92;101035.76;105145;1260;69127;-57
2023/08/12 05:38:50;;;;;;;7.20;5.50;;;;;;;15.69;99.95;101036.61;105200;1255;74688;-57
2023/08/12 05:41:17;;;;;;;8.60;6.00;;;;;;;15.83;100.00;101029.79;105189;1256;82339;-58
2023/08/12 05:43:44;;;;;;;6.60;5.50;;;;;;;15.95;99.80;101034.67;105194;1256;72370;-57
2023/08/12 05:46:11;;;;;;;7.30;5.20;;;;;;;16.07;99.49;101033.02;105237;1256;69063;-52
2023/08/12 05:48:38;;;;;;;8.10;6.00;;;;;;;16.20;99.17;101031.48;105194;1256;69142;-55
2023/08/12 05:51:05;;;;;;;5.30;4.80;;;;;;;16.37;98.95;101028.31;105161;1259;75677;-57
2023/08/12 05:53:32;;;;;;;5.20;4.70;;;;;;;16.56;98.86;101024.52;105138;1259;82319;-59
2023/08/12 05:55:59;;;;;;;5.60;5.00;;;;;;;16.76;98.96;101022.77;105114;1256;72533;-57
2023/08/12 05:58:26;;;;;;;4.80;4.30;;;;;;;16.93;98.72;101022.05;105135;1256;69154;-57
2023/08/12 06:00:53;;;;;;;5.30;4.10;;;;;;;17.07;98.04;101018.48;105127;1256;69170;-57
2023/08/12 06:03:20;;;;;;;5.10;3.90;;;;;;;17.19;97.34;101019.25;105168;1256;74603;-58
2023/08/12 06:05:47;;;;;;;5.10;4.50;;;;;;;17.29;96.82;101014.63;105210;1261;84635;-58
2023/08/12 06:08:14;;;;;;;5.80;4.40;;;;;;;17.41;96.74;101011.30;105268;1256;72529;-57
2023/08/12 06:10:41;;;;;;;5.60;3.50;;;;;;;17.51;96.16;101010.59;105288;1256;69055;-57
2023/08/12 06:13:08;;;;;;;6.50;3.60;;;;;;;17.62;95.84;101011.19;105277;1256;69072;-57
2023/08/12 06:15:36;;;;;;;5.10;3.40;;;;;;;17.73;95.42;101011.25;105246;1256;75695;-57
2023/08/12 06:18:03;;;;;;;5.40;4.20;;;;;;;17.82;94.88;101011.50;105182;1258;82159;-57
2023/08/12 06:20:30;;;;;;;7.50;3.40;;;;;;;17.91;94.10;101010.10;105419;1256;73993;-57
2023/08/12 06:22:57;;;;;;;5.40;4.40;;;;;;;18.00;93.67;101013.08;105239;1257;69265;-57
2023/08/12 06:25:24;;;;;;;4.70;3.50;;;;;;;18.10;93.03;101013.96;105229;1259;69219;-57
2023/08/12 06:27:51;;;;;;;5.90;3.70;;;;;;;18.17;92.47;101012.79;105207;1256;75584;-56
2023/08/12 06:30:18;;;;;;;9.50;3.70;;;;;;;18.26;92.37;101007.35;105207;1256;83701;-57
2023/08/12 06:32:45;;;;;;;5.70;3.40;;;;;;;18.35;91.91;101008.05;105219;1256;72620;-57
2023/08/12 06:35:12;;;;;;;5.30;3.90;;;;;;;18.41;91.72;101006.07;105281;1259;69562;-54
2023/08/12 06:37:40;;;;;;;6.20;3.90;;;;;;;18.47;91.64;101004.45;105360;1258;69141;-57
2023/08/12 06:40:07;;;;;;;5.90;3.60;;;;;;;18.53;91.32;101003.05;105334;1260;74758;-57
2023/08/12 06:42:35;;;;;;;6.30;3.80;;;;;;;18.59;90.96;101004.13;105304;1258;83761;-57
2023/08/12 06:45:03;;;;;;;4.60;3.20;;;;;;;18.64;90.60;101002.20;105202;1256;73953;-56
2023/08/12 06:47:31;;;;;;;5.20;3.50;;;;;;;18.70;90.45;101002.02;105330;1256;69197;-57
2023/08/12 06:49:58;;;;;;;6.20;3.90;;;;;;;18.76;89.82;101002.41;105371;1259;69168;-57
2023/08/12 06:52:25;;;;;;;5.70;3.60;;;;;;;18.80;89.12;100999.67;105594;1256;75590;-56
2023/08/12 06:54:52;;;;;;;7.30;3.30;;;;;;;18.84;88.74;101005.46;105218;1258;83163;-58
2023/08/12 06:57:19;;;;;;;7.40;3.50;;;;;;;18.90;88.49;101007.55;105162;1256;73657;-58
2023/08/12 06:59:45;;;;;;;5.40;3.10;;;;;;;18.95;88.03;101005.48;105206;1261;69140;-57
2023/08/12 07:02:12;;;;;;;5.00;3.10;;;;;;;19.00;87.73;101003.21;105198;1256;69086;-58
2023/08/12 07:04:40;;;;;;;5.40;3.50;;;;;;;19.06;87.73;101000.86;105144;1259;75559;-55
2023/08/12 07:07:07;;;;;;;7.00;3.20;;;;;;;19.13;87.42;101000.96;105250;1258;83315;-57
2023/08/12 07:09:34;;;;;;;5.00;3.20;;;;;;;19.20;87.11;100997.55;105186;1256;73792;-57
2023/08/12 07:12:01;;;;;;;7.90;3.20;;;;;;;19.27;86.70;100996.88;105447;1256;69011;-57
2023/08/12 07:14:28;;;;;;;3.70;3.20;;;;;;;19.36;86.42;100997.01;105271;1256;69193;-57
2023/08/12 07:16:55;;;;;;;4.20;3.10;;;;;;;19.46;86.25;100991.27;105123;1259;74626;-58
2023/08/12 07:19:22;;;;;;;4.40;3.20;;;;;;;19.56;85.76;100993.04;105434;1256;82473;-57
2023/08/12 07:21:49;;;;;;;6.90;3.60;;;;;;;19.69;85.62;100989.08;105170;1256;71660;-57
2023/08/12 07:24:16;;;;;;;4.10;3.20;;;;;;;19.86;85.66;100978.94;105201;1258;69193;-57
2023/08/12 07:26:43;;;;;;;7.50;3.10;;;;;;;20.02;85.58;100971.08;105172;1256;69149;-56
2023/08/12 07:29:10;;;;;;;6.10;3.80;;;;;;;20.21;85.86;100973.16;105323;1256;74856;-58
2023/08/12 07:31:37;;;;;;;9.90;3.50;;;;;;;20.42;85.83;100972.05;105304;1258;83278;-58
2023/08/12 07:34:04;;;;;;;6.30;3.20;;;;;;;20.61;85.24;100977.38;105187;1258;73149;-55
2023/08/12 07:36:32;;;;;;;4.50;2.90;;;;;;;20.74;84.14;100977.69;105355;1258;69191;-55
2023/08/12 07:38:59;;;;;;;4.20;2.90;;;;;;;20.85;83.18;100974.38;105439;1258;69200;-56
2023/08/12 07:41:27;;;;;;;5.00;2.60;;;;;;;20.97;82.78;100977.27;105196;1256;75806;-58
2023/08/12 07:43:54;;;;;;;6.30;2.90;;;;;;;21.08;81.92;100974.02;105195;1256;83432;-57
2023/08/12 07:46:21;;;;;;;5.90;3.00;;;;;;;21.16;81.15;100972.91;104946;1256;278098;-56
2023/08/12 07:48:48;;;;;;;7.10;2.80;;;;;;;21.24;80.66;100972.02;105228;1256;69174;-55
2023/08/12 07:51:15;;;;;;;5.30;3.20;;;;;;;21.32;80.49;100970.87;105298;1258;69149;-49
2023/08/12 07:53:43;;;;;;;5.80;3.00;;;;;;;21.43;80.02;100973.27;105428;1256;75677;-58
2023/08/12 07:56:10;;;;;;;5.10;2.80;;;;;;;21.54;79.45;100975.67;105249;1258;83287;-58
2023/08/12 07:58:37;;;;;;;4.70;2.50;;;;;;;21.68;78.94;100973.95;105305;1256;74213;-58
2023/08/12 08:01:04;;;;;;;4.30;2.30;;;;;;;21.78;78.50;100973.51;105285;1256;69131;-58
2023/08/12 08:03:31;;;;;;;5.00;2.80;;;;;;;21.90;78.22;100967.64;105432;1256;69490;-58
2023/08/12 08:05:58;;;;;;;4.00;2.70;;;;;;;22.02;77.66;100966.00;105377;1256;75933;-58
2023/08/12 08:08:26;;;;;;;6.60;2.90;;;;;;;22.15;77.48;100961.86;105439;1256;82669;-59
2023/08/12 08:10:53;;;;;;;4.50;2.80;;;;;;;22.30;77.17;100959.80;105201;1258;73738;-59
2023/08/12 08:13:20;;;;;;;3.30;2.30;;;;;;;22.44;76.56;100957.88;105175;1261;68939;-57
2023/08/12 08:15:46;;;;;;;4.50;2.90;;;;;;;22.52;76.19;100956.86;105151;1256;69168;-59
2023/08/12 08:18:13;;;;;;;5.70;2.70;;;;;;;22.64;76.10;100958.18;105250;1258;75879;-59
2023/08/12 08:20:43;;;;;;;2.80;2.50;;;;;;;22.80;76.20;100959.42;105185;1256;83158;-59
2023/08/12 08:23:12;;;;;;;3.70;2.40;;;;;;;22.93;75.58;100956.05;105241;1258;72669;-58
2023/08/12 08:25:39;;;;;;;3.60;2.30;;;;;;;23.03;74.79;100953.54;105179;1256;69186;-60
2023/08/12 08:28:07;;;;;;;4.80;2.30;;;;;;;23.15;74.30;100954.71;105257;1259;69229;-58
2023/08/12 08:30:34;;;;;;;5.20;2.70;;;;;;;23.30;73.76;100957.77;105378;1260;74625;-60
2023/08/12 08:33:02;;;;;;;3.90;2.50;;;;;;;23.41;73.07;100955.41;105450;1260;83390;-58
2023/08/12 08:35:29;;;;;;;4.50;2.40;;;;;;;23.51;72.79;100953.60;105199;1256;73674;-60
2023/08/12 08:37:56;;;;;;;4.60;2.50;;;;;;;23.64;72.35;100949.63;105204;1256;69099;-57
2023/08/12 08:40:23;;;;;;;5.70;2.60;;;;;;;23.71;71.05;100953.71;105234;1260;69198;-57
2023/08/12 08:42:54;;;;;;;3.60;2.60;;;;;;;23.69;70.12;100950.29;105220;1256;74620;-58
2023/08/12 08:45:25;;;;;;;4.00;2.40;;;;;;;23.69;69.41;100952.38;105292;1256;82626;-59
2023/08/12 08:47:52;;;;;;;3.90;2.50;;;;;;;23.72;68.95;100944.17;105203;1257;73962;-58
2023/08/12 08:50:20;;;;;;;5.20;2.40;;;;;;;23.79;68.79;100946.64;105305;1256;69118;-59
2023/08/12 08:52:47;;;;;;;6.40;2.80;;;;;;;23.87;68.48;100946.33;105272;1258;69161;-58
2023/08/12 08:55:15;;;;;;;3.40;2.60;;;;;;;23.93;68.14;100944.34;105374;1256;75720;-57
2023/08/12 08:57:43;;;;;;;5.10;2.70;;;;;;;23.99;67.61;100942.95;105385;1261;82763;-58
2023/08/12 09:00:16;;;;;;;5.70;2.50;;;;;;;24.02;67.09;100943.25;105246;1256;73957;-58
2023/08/12 09:02:50;;;;;;;6.60;2.40;;;;;;;24.14;67.32;100944.54;105363;1259;69208;-59
2023/08/12 09:05:17;;;;;;;5.70;2.50;;;;;;;24.25;67.03;100943.60;105262;1259;69189;-59
2023/08/12 09:07:45;;;;;;;5.80;2.80;;;;;;;24.39;66.89;100944.70;105419;1257;75416;-59
2023/08/12 09:10:12;;;;;;;5.00;2.30;;;;;;;24.57;67.03;100946.02;105201;1262;83337;-59
2023/08/12 09:12:43;;;;;;;4.10;2.60;;;;;;;24.72;66.50;100947.05;105364;1255;73778;-59
2023/08/12 09:15:10;;;;;;;4.10;2.60;;;;;;;24.82;65.79;100946.89;105230;1262;69280;-60
2023/08/12 09:17:37;;;;;;;3.70;2.20;;;;;;;24.87;65.21;100942.44;105322;1256;69077;-60
2023/08/12 09:20:11;;;;;;;5.60;2.30;;;;;;;24.97;65.20;100941.09;105245;1258;75744;-61
2023/08/12 09:22:40;;;;;;;3.90;2.40;;;;;;;25.14;64.96;100937.95;105599;1256;82445;-61
2023/08/12 09:25:08;;;;;;;5.00;2.60;;;;;;;25.29;64.20;100936.60;105358;1256;72557;-59
2023/08/12 09:27:37;;;;;;;3.80;2.30;;;;;;;25.40;63.67;100928.98;105394;1260;69175;-60
2023/08/12 09:30:05;;;;;;;3.20;2.40;;;;;;;25.54;63.95;100923.38;105434;1260;69176;-61
2023/08/12 09:32:34;;;;;;;4.80;2.50;;;;;;;25.76;63.86;100923.52;105289;1259;74450;-60
2023/08/12 09:35:06;;;;;;;4.00;2.40;;;;;;;25.95;63.14;100919.68;105316;1256;82261;-59
2023/08/12 09:37:33;;;;;;;6.10;2.30;;;;;;;26.10;62.38;100915.88;105289;1256;73682;-60
2023/08/12 09:40:00;;;;;;;4.80;2.20;;;;;;;26.26;61.78;100917.43;105189;1256;69096;-58
2023/08/12 09:42:28;;;;;;;9.40;2.30;;;;;;;26.42;61.66;100912.65;105225;1261;69399;-58
2023/08/12 09:44:56;;;;;;;4.20;2.10;;;;;;;26.56;61.10;100910.98;105366;1256;75660;-63
2023/08/12 09:47:25;;;;;;;3.10;2.10;;;;;;;26.70;60.81;100915.90;105648;1258;83797;-58
2023/08/12 09:49:52;;;;;;;3.70;2.40;;;;;;;26.83;60.13;100913.61;105221;1257;73617;-59
2023/08/12 09:52:19;;;;;;;3.10;2.30;;;;;;;26.89;59.15;100913.51;105224;1260;69133;-59
2023/08/12 09:54:47;;;;;;;4.60;1.90;;;;;;;26.97;58.67;100910.09;105350;1256;69088;-59
2023/08/12 09:57:14;;;;;;;4.60;2.30;;;;;;;27.14;58.83;100908.75;105210;1261;74615;-59
2023/08/12 09:59:42;;;;;;;8.10;2.50;;;;;;;27.38;58.81;100907.31;105275;1257;83617;-61
2023/08/12 10:02:13;;;;;;;3.50;2.00;;;;;;;27.61;58.32;100900.27;105369;1261;73695;-62
2023/08/12 10:04:42;;;;;;;3.40;2.10;;;;;;;27.81;57.59;100899.70;105277;1259;69800;-59
2023/08/12 10:07:09;;;;;;;3.10;2.10;;;;;;;28.03;57.24;100896.60;105320;1256;69131;-60
2023/08/12 10:09:37;;;;;;;2.70;1.80;;;;;;;28.23;56.47;100898.44;105452;1256;74916;-59
2023/08/12 10:12:06;;;;;;;2.40;1.70;;;;;;;28.35;55.71;100888.53;105159;1261;83462;-60
2023/08/12 10:14:33;;;;;;;5.00;2.00;;;;;;;28.52;55.17;100892.39;105118;1257;72747;-58
2023/08/12 10:17:01;;;;;;;5.10;1.80;;;;;;;28.69;54.69;100888.27;105384;1258;69202;-59
2023/08/12 10:19:32;;;;;;;9.50;2.70;;;;;;;28.93;54.37;100880.33;105275;1258;69176;-60
2023/08/12 10:21:59;;;;;;;4.10;2.10;;;;;;;29.21;54.05;100877.68;105172;1259;74594;-60
2023/08/12 10:24:27;;;;;;;4.60;1.80;;;;;;;29.47;53.13;100875.23;105289;1259;83407;-60
2023/08/12 10:26:54;;;;;;;4.50;1.90;;;;;;;29.66;52.61;100878.15;105216;1256;73138;-60
2023/08/12 10:29:24;;;;;;;2.90;1.50;;;;;;;29.93;52.34;100878.00;105180;1259;69178;-59
2023/08/12 10:31:51;;;;;;;3.70;1.80;;;;;;;30.23;51.69;100874.70;105093;1261;69157;-60
2023/08/12 10:34:22;;;;;;;2.90;1.40;;;;;;;30.49;51.33;100877.30;105281;1256;74911;-61
2023/08/12 10:36:57;;;;;;;3.00;1.60;;;;;;;30.74;50.71;100877.86;105276;1258;83443;-61
2023/08/12 10:39:33;;;;;;;3.30;1.50;;;;;;;31.00;50.20;100874.05;105229;1259;73608;-61
2023/08/12 10:42:00;;;;;;;2.60;1.50;;;;;;;31.18;49.89;100872.57;105226;1259;69095;-61
2023/08/12 10:44:42;;;;;;;2.20;1.30;;;;;;;31.41;49.29;100864.64;105254;1256;69180;-60
2023/08/12 10:47:10;;;;;;;6.50;2.30;;;;;;;31.57;48.75;100862.48;105229;1258;75620;-60
2023/08/12 10:49:58;;;;;;;3.00;2.00;;;;;;;31.77;48.05;100858.13;105296;1259;83405;-61
2023/08/12 10:52:33;;;;;;;2.10;1.60;;;;;;;32.03;48.26;100852.35;105235;1256;74042;-61
2023/08/12 10:55:18;;;;;;;2.70;1.90;;;;;;;32.32;47.43;100854.12;105211;1261;69839;-61
2023/08/12 10:57:45;;;;;;;3.20;2.00;;;;;;;32.60;46.80;100853.20;105283;1259;69191;-61
2023/08/12 11:00:18;;;;;;;3.90;1.70;;;;;;;32.74;46.17;100850.05;105254;1256;75504;-58
2023/08/12 11:02:46;;;;;;;5.00;2.50;;;;;;;32.87;45.63;100847.52;105250;1262;82492;-60
2023/08/12 11:05:14;;;;;;;4.50;2.70;;;;;;;33.01;45.35;100842.55;105196;1257;73658;-60
2023/08/12 11:07:43;;;;;;;7.20;5.50;;;;;;;33.18;44.77;100846.92;105305;1258;69087;-60
2023/08/12 11:10:16;;;;;;;6.60;3.50;;;;;;;33.40;44.27;100835.66;105288;1259;69574;-60
2023/08/12 11:12:54;;;;;;;2.10;1.80;;;;;;;33.46;44.02;100832.11;105263;1258;75716;-61
2023/08/12 11:15:41;;;;;;;4.00;2.10;;;;;;;33.52;43.74;100830.85;105281;1259;83584;-61
2023/08/12 11:18:10;;;;;;;5.00;4.50;;;;;;;33.59;43.06;100837.43;105333;1257;73763;-61
2023/08/12 11:20:37;;;;;;;;;;;;;;;33.65;42.77;100835.68;105297;1259;69513;-60